メインページ
METAR-TAF:

METAR-TAF

空港 :

Yorkton, サスカチュワン州, カナダ

緯度: 51-16N, 経度: 102-28W, 海抜: 498m

現時点の気象観測

当レポートは26分前の04:21(UTC)に作成
の風 4kt、北/北西からの間で変化する
気温 -10°C
湿度 92%
気圧 1018 hPa
視程: 0.8km
着氷性の霧

METAR: CYQV 270421Z AUTO 35004KT 340V080 1/2SM FZFG VV003 M10/M11 A3005 RMK SLP217

時間: 22:47 (04:47 UTC)

予報

当レポートは1時間25分前の03:22(UTC)に作成
予報は27日の 03時(UTC)から 27日の 06時(UTC)まで有効
の風 6kt
視程: 10km
高度600ftの曇り
27日の 03時(UTC)から 27日の 06時(UTC)まで一時的に
視程: 3.2km
高度200ftの曇り
小雪, 靄

TAF: CYQV 270322Z 2703/2706 01006KT P6SM OVC006 TEMPO 2703/2706 2SM -SN BR OVC002 RMK FCST BASED ON AUTO OBS. NXT FCST WILL BE ISSUED AT 271145Z

4,000以上の空港の気象観測と天気予報(METAR報とTAF報)

利用可能な観測所は地図上に黄色い丸と赤い丸で示す。

丸の上にカーソルを重ねると観測所名を参照できる。

次にクリックすると気象観測と天気予報を参照できる。

マップの切り替え:黒色「×」印の緑ボタンをクリックして拡大、「-」印の緑ボタンをクリックして縮小、緑色の三角印をクリックして隣りの地図に切り替え


METAR-TAF: